Time;durP1;ratioP1;P1;durP2;ratioP2;P2;SDS_P1;SDS_P2;PMS_P1;PMS_P2;Temp;Humidity;BMP_temperature;BMP_pressure;BME280_temperature;BME280_humidity;BME280_pressure;Samples;Min_cycle;Max_cycle;Signal;HPM_P1;HPM_P2
2021/12/01 00:00:50;;;;;;;2.78;0.50;;;10.30;99.90;;;;;;5032356;28;20044;-77
2021/12/01 00:03:15;;;;;;;4.05;0.50;;;10.20;99.90;;;;;;5032508;28;20486;-77
2021/12/01 00:05:42;;;;;;;1.70;0.45;;;10.20;99.90;;;;;;5032629;28;20029;-78
2021/12/01 00:08:08;;;;;;;;;;;10.10;99.90;;;;;;5015138;28;20094;-77
2021/12/01 00:10:35;;;;;;;1.25;0.60;;;10.10;99.90;;;;;;5031769;28;19924;-78
2021/12/01 00:13:02;;;;;;;6.22;0.80;;;10.00;99.90;;;;;;5031354;28;20038;-78
2021/12/01 00:15:28;;;;;;;2.65;0.40;;;10.00;99.90;;;;;;5032502;28;20095;-78
2021/12/01 00:17:54;;;;;;;1.52;0.50;;;10.10;99.90;;;;;;5031407;28;20021;-78
2021/12/01 00:20:20;;;;;;;2.25;0.73;;;10.10;99.90;;;;;;5031128;28;20040;-78
2021/12/01 00:22:47;;;;;;;3.63;0.35;;;10.10;99.90;;;;;;5014763;28;20554;-78
2021/12/01 00:25:17;;;;;;;3.03;0.60;;;10.00;99.90;;;;;;5032225;28;20515;-78
2021/12/01 00:27:43;;;;;;;0.30;0.20;;;10.00;99.80;;;;;;5032340;28;20092;-78
2021/12/01 00:30:09;;;;;;;1.33;0.43;;;10.00;99.80;;;;;;5032407;28;20033;-78
2021/12/01 00:32:36;;;;;;;1.48;0.40;;;9.90;99.70;;;;;;5030812;28;20391;-78
2021/12/01 00:35:06;;;;;;;0.95;0.43;;;9.90;99.80;;;;;;5032132;28;20061;-78
2021/12/01 00:37:33;;;;;;;1.75;0.45;;;9.90;99.70;;;;;;5032324;28;20476;-78
2021/12/01 00:39:58;;;;;;;1.75;1.00;;;9.90;99.70;;;;;;5014324;28;20029;-78
2021/12/01 00:42:25;;;;;;;2.92;0.40;;;9.90;99.70;;;;;;5030675;28;20107;-78
2021/12/01 00:44:56;;;;;;;0.88;0.40;;;9.90;99.70;;;;;;5031877;28;20482;-78
2021/12/01 00:47:31;;;;;;;2.83;0.40;;;9.90;99.70;;;;;;5031192;28;20139;-78
2021/12/01 00:49:57;;;;;;;0.75;0.15;;;9.90;99.70;;;;;;5030484;28;20381;-78
2021/12/01 00:52:22;;;;;;;1.95;0.30;;;9.90;99.70;;;;;;5030621;28;20045;-78
2021/12/01 00:54:48;;;;;;;1.73;0.45;;;9.90;99.70;;;;;;5030577;28;20033;-79
2021/12/01 00:57:14;;;;;;;1.13;0.60;;;9.90;99.70;;;;;;5013999;28;20045;-78
2021/12/01 00:59:39;;;;;;;1.52;0.43;;;9.90;99.70;;;;;;5030528;28;20088;-78
2021/12/01 01:02:06;;;;;;;1.80;0.60;;;9.90;99.80;;;;;;5030309;28;20112;-79
2021/12/01 01:04:32;;;;;;;4.00;0.82;;;9.90;99.80;;;;;;5031659;28;20030;-78
2021/12/01 01:06:57;;;;;;;1.05;0.47;;;9.90;99.80;;;;;;5013822;28;20132;-78
2021/12/01 01:09:30;;;;;;;2.85;0.63;;;9.90;99.80;;;;;;5030325;28;20037;-78
2021/12/01 01:17:36;;;;;;;4.32;0.60;;;9.90;99.70;;;;;;5030604;28;20415;-78
2021/12/01 01:20:04;;;;;;;5.00;0.82;;;9.80;99.60;;;;;;5014917;28;20037;-78
2021/12/01 01:22:29;;;;;;;4.47;1.33;;;9.80;99.70;;;;;;5029806;28;20060;-78
2021/12/01 01:24:55;;;;;;;5.32;0.77;;;9.70;99.80;;;;;;5030116;28;20469;-78
2021/12/01 01:27:21;;;;;;;4.07;0.68;;;9.70;99.80;;;;;;5030052;28;20083;-78
2021/12/01 01:29:47;;;;;;;8.00;0.82;;;9.70;99.90;;;;;;5029976;28;20033;-78
2021/12/01 01:32:12;;;;;;;6.60;0.77;;;9.70;99.90;;;;;;5013446;28;20558;-78
2021/12/01 01:34:38;;;;;;;6.88;1.00;;;9.70;99.90;;;;;;5013662;28;20037;-79
2021/12/01 01:37:04;;;;;;;1.33;0.40;;;9.70;99.90;;;;;;5029886;28;20034;-78
2021/12/01 01:39:29;;;;;;;6.75;1.00;;;9.70;99.90;;;;;;5031254;28;20057;-78
2021/12/01 01:41:55;;;;;;;6.20;0.80;;;9.60;99.90;;;;;;5029839;28;20040;-78
2021/12/01 01:44:22;;;;;;;2.53;0.63;;;9.60;99.90;;;;;;5030076;28;20488;-78
2021/12/01 01:46:48;;;;;;;4.03;0.88;;;9.60;99.90;;;;;;5029918;28;20037;-78
2021/12/01 01:51:43;;;;;;;5.70;1.00;;;9.50;99.90;;;;;;5030024;28;20040;-78
2021/12/01 01:54:10;;;;;;;2.45;0.82;;;9.40;99.90;;;;;;5031190;28;20037;-79
2021/12/01 01:56:37;;;;;;;1.80;0.50;;;9.40;99.90;;;;;;5031047;28;20026;-78
2021/12/01 01:59:03;;;;;;;3.53;0.50;;;9.30;99.90;;;;;;5031196;28;20029;-79
2021/12/01 02:01:44;;;;;;;3.70;1.08;;;9.30;99.90;;;;;;5031046;28;20033;-79
2021/12/01 02:04:11;;;;;;;6.32;0.95;;;9.30;99.90;;;;;;5015116;28;20030;-79
2021/12/01 02:06:36;;;;;;;3.20;1.02;;;9.40;99.90;;;;;;5013593;28;20076;-79
2021/12/01 02:09:03;;;;;;;2.55;0.68;;;9.40;99.90;;;;;;5029516;28;20099;-79
2021/12/01 02:11:29;;;;;;;6.35;1.08;;;9.40;99.90;;;;;;5030657;28;20068;-79
2021/12/01 02:13:55;;;;;;;;;;;9.40;99.70;;;;;;5030220;28;20026;-78
2021/12/01 02:16:21;;;;;;;1.77;0.43;;;9.40;99.70;;;;;;5029856;28;19916;-78
2021/12/01 02:18:48;;;;;;;3.88;0.68;;;9.40;99.60;;;;;;5029809;28;20495;-78
2021/12/01 02:21:26;;;;;;;4.28;0.73;;;9.30;99.60;;;;;;5030682;28;20039;-78
2021/12/01 02:23:53;;;;;;;3.75;0.63;;;9.30;99.60;;;;;;5029796;28;20037;-78
2021/12/01 02:26:22;;;;;;;1.17;0.50;;;9.20;99.60;;;;;;5029622;28;20021;-79
2021/12/01 02:28:52;;;;;;;4.18;1.00;;;9.10;99.70;;;;;;5030697;28;20029;-78
2021/12/01 02:31:19;;;;;;;5.35;1.10;;;9.10;99.80;;;;;;5030648;28;20022;-78
2021/12/01 02:33:44;;;;;;;7.60;1.30;;;9.10;99.90;;;;;;5034216;28;20175;-78
2021/12/01 02:36:12;;;;;;;1.60;0.85;;;9.00;99.90;;;;;;5034330;28;20104;-79
2021/12/01 02:38:40;;;;;;;6.10;0.90;;;9.10;99.90;;;;;;5034280;28;20030;-78
2021/12/01 02:41:06;;;;;;;4.78;1.13;;;9.10;99.90;;;;;;5033022;28;20472;-79
2021/12/01 02:43:33;;;;;;;;;;;9.10;99.90;;;;;;5033497;28;20068;-78
2021/12/01 02:45:59;;;;;;;8.40;1.30;;;9.10;99.90;;;;;;5034180;28;19909;-78
2021/12/01 02:48:25;;;;;;;5.55;1.38;;;9.20;99.90;;;;;;5032997;28;20268;-78
2021/12/01 02:50:52;;;;;;;6.97;1.20;;;9.10;99.90;;;;;;5032664;28;20450;-79
2021/12/01 02:53:23;;;;;;;8.68;1.40;;;9.00;99.80;;;;;;5032963;28;20105;-79
2021/12/01 02:55:58;;;;;;;5.97;1.48;;;8.80;99.80;;;;;;5034073;28;20061;-78
2021/12/01 02:58:25;;;;;;;9.35;1.17;;;8.70;99.90;;;;;;5034130;28;20029;-79
2021/12/01 03:00:53;;;;;;;9.35;1.25;;;8.60;99.90;;;;;;5016230;28;20060;-78
2021/12/01 03:03:20;;;;;;;9.63;1.50;;;8.60;99.90;;;;;;5032594;28;20032;-79
2021/12/01 03:05:47;;;;;;;12.25;1.80;;;8.50;99.90;;;;;;5033803;28;20022;-78
2021/12/01 03:08:15;;;;;;;8.60;2.03;;;8.50;99.90;;;;;;5033758;28;20025;-78
2021/12/01 03:10:47;;;;;;;13.55;1.83;;;8.40;99.90;;;;;;5032128;28;20045;-79
2021/12/01 03:13:14;;;;;;;8.23;1.88;;;8.30;99.90;;;;;;5033838;28;20036;-79
2021/12/01 03:15:41;;;;;;;4.47;1.10;;;8.30;99.90;;;;;;5034153;28;20464;-79
2021/12/01 03:18:08;;;;;;;6.28;1.77;;;8.20;99.90;;;;;;5032619;28;20435;-78
2021/12/01 03:20:34;;;;;;;8.63;1.17;;;8.20;99.90;;;;;;5032175;28;20057;-78
2021/12/01 03:22:59;;;;;;;11.57;1.83;;;8.10;99.90;;;;;;5033448;28;20060;-78
2021/12/01 03:25:27;;;;;;;9.93;2.08;;;8.10;99.90;;;;;;5015696;28;20033;-79
2021/12/01 03:27:53;;;;;;;11.60;1.70;;;8.00;99.90;;;;;;5032030;28;20033;-79
2021/12/01 03:30:19;;;;;;;11.45;1.63;;;8.00;99.90;;;;;;5033241;28;20048;-78
2021/12/01 03:32:45;;;;;;;7.60;1.60;;;7.90;99.90;;;;;;5015485;28;20395;-79
2021/12/01 03:35:14;;;;;;;6.40;2.22;;;7.90;99.90;;;;;;5031972;28;20025;-79
2021/12/01 03:37:42;;;;;;;9.60;2.28;;;7.90;99.90;;;;;;5033199;28;20476;-79
2021/12/01 03:40:09;;;;;;;8.32;1.85;;;7.90;99.90;;;;;;5032999;28;20029;-79
2021/12/01 03:42:35;;;;;;;9.73;1.40;;;7.80;99.90;;;;;;5031910;28;20032;-79
2021/12/01 03:45:02;;;;;;;10.27;1.98;;;7.80;99.90;;;;;;5032666;28;20029;-79
2021/12/01 03:47:28;;;;;;;12.07;1.73;;;7.80;99.90;;;;;;5033085;28;20319;-79
2021/12/01 03:49:54;;;;;;;17.50;2.33;;;7.80;99.90;;;;;;4998708;28;20037;-79
2021/12/01 03:52:20;;;;;;;7.20;1.33;;;7.80;99.90;;;;;;5015459;28;20564;-79
2021/12/01 03:54:47;;;;;;;10.13;1.42;;;7.80;99.90;;;;;;5031606;28;20053;-78
2021/12/01 03:57:14;;;;;;;11.40;1.83;;;7.80;99.90;;;;;;5031402;28;20423;-79
2021/12/01 03:59:40;;;;;;;8.35;1.45;;;7.70;99.90;;;;;;5031463;28;20508;-78
2021/12/01 04:02:06;;;;;;;12.23;1.60;;;7.70;99.90;;;;;;5031496;28;20037;-78
2021/12/01 04:04:32;;;;;;;12.18;1.77;;;7.70;99.90;;;;;;5032813;28;20041;-79
2021/12/01 04:06:57;;;;;;;9.10;1.60;;;7.60;99.90;;;;;;5031307;28;20029;-78
2021/12/01 04:09:24;;;;;;;13.57;1.67;;;7.60;99.90;;;;;;5031287;28;20079;-79
2021/12/01 04:11:49;;;;;;;;;;;7.60;99.90;;;;;;5032832;28;20042;-78
2021/12/01 04:14:15;;;;;;;12.13;1.67;;;7.50;99.90;;;;;;5032503;28;20334;-78
2021/12/01 04:16:41;;;;;;;10.07;1.80;;;7.50;99.90;;;;;;5031175;28;20048;-78
2021/12/01 04:19:07;;;;;;;10.70;1.65;;;7.50;99.90;;;;;;5032332;28;20029;-79
2021/12/01 04:21:33;;;;;;;8.98;1.92;;;7.50;99.90;;;;;;5032207;28;20358;-79
2021/12/01 04:23:59;;;;;;;16.23;2.55;;;7.50;99.90;;;;;;5032303;28;20431;-79
2021/12/01 04:26:27;;;;;;;16.42;2.42;;;7.50;99.90;;;;;;5030877;28;20033;-78
2021/12/01 04:28:54;;;;;;;9.35;1.90;;;7.40;99.90;;;;;;5014778;28;20060;-79
2021/12/01 04:31:21;;;;;;;9.40;1.48;;;7.50;99.90;;;;;;5032122;28;20044;-79
2021/12/01 04:33:47;;;;;;;;;;;7.50;99.90;;;;;;5015020;28;20118;-79
2021/12/01 04:36:16;;;;;;;10.57;2.07;;;7.50;99.90;;;;;;5032200;28;19906;-79
2021/12/01 04:38:42;;;;;;;10.90;2.00;;;7.50;99.90;;;;;;5031994;28;20260;-79
2021/12/01 04:41:09;;;;;;;4.57;1.98;;;7.40;99.90;;;;;;5030686;28;20037;-78
2021/12/01 04:43:37;;;;;;;7.30;1.42;;;7.40;99.90;;;;;;5014246;28;20037;-79
2021/12/01 04:46:04;;;;;;;11.48;1.92;;;7.40;99.90;;;;;;5031944;28;20029;-79
2021/12/01 04:48:31;;;;;;;8.30;1.95;;;7.40;99.90;;;;;;5030473;28;20034;-78
2021/12/01 04:50:57;;;;;;;10.48;1.75;;;7.40;99.90;;;;;;5031681;28;20034;-78
2021/12/01 04:53:25;;;;;;;4.97;0.93;;;7.30;99.90;;;;;;5031970;28;20487;-79
2021/12/01 04:55:52;;;;;;;8.52;1.73;;;7.30;99.90;;;;;;5029530;28;20108;-78
2021/12/01 04:58:18;;;;;;;11.38;1.30;;;7.30;99.90;;;;;;5031675;28;20022;-79
2021/12/01 05:00:44;;;;;;;11.30;1.58;;;7.30;99.90;;;;;;5031466;28;20476;-78
2021/12/01 05:03:09;;;;;;;6.72;1.33;;;7.40;99.90;;;;;;5030373;28;20033;-79
2021/12/01 05:05:35;;;;;;;7.47;1.15;;;7.50;99.90;;;;;;5031469;28;20033;-79
2021/12/01 05:08:02;;;;;;;5.72;1.13;;;7.60;99.90;;;;;;5031602;28;20476;-79
2021/12/01 05:10:28;;;;;;;9.10;1.00;;;7.80;99.90;;;;;;5031253;28;20053;-79
2021/12/01 05:12:53;;;;;;;7.82;1.65;;;7.80;99.90;;;;;;5013968;28;20480;-78
2021/12/01 05:15:19;;;;;;;8.75;1.63;;;7.70;99.90;;;;;;5030315;28;20539;-78
2021/12/01 05:17:45;;;;;;;11.63;1.80;;;7.70;99.90;;;;;;5013813;28;20427;-79
2021/12/01 05:20:14;;;;;;;5.43;1.13;;;7.60;99.90;;;;;;5030128;28;20491;-78
2021/12/01 05:22:40;;;;;;;8.07;1.23;;;7.50;99.90;;;;;;5030055;28;20033;-78
2021/12/01 05:25:06;;;;;;;10.75;1.42;;;7.50;99.90;;;;;;5030210;28;20059;-78
2021/12/01 05:27:32;;;;;;;9.32;1.13;;;7.50;99.90;;;;;;5030016;28;20400;-78
2021/12/01 05:29:58;;;;;;;10.93;1.85;;;7.50;99.90;;;;;;5030001;28;20029;-79
2021/12/01 05:32:25;;;;;;;6.00;1.13;;;7.50;99.90;;;;;;5031190;28;20044;-78
2021/12/01 05:34:50;;;;;;;9.70;1.23;;;7.60;99.90;;;;;;5031313;28;20053;-78
2021/12/01 05:37:16;;;;;;;9.10;1.10;;;7.60;99.90;;;;;;5031240;28;20056;-79
2021/12/01 05:39:45;;;;;;;8.25;1.45;;;7.60;99.90;;;;;;5029757;28;20069;-78
2021/12/01 05:42:12;;;;;;;9.45;1.40;;;7.60;99.90;;;;;;5030921;28;20030;-78
2021/12/01 05:44:40;;;;;;;12.60;2.17;;;7.60;99.90;;;;;;5029553;28;20365;-78
2021/12/01 05:47:06;;;;;;;5.22;1.42;;;7.60;99.90;;;;;;5031312;28;20518;-78
2021/12/01 05:49:32;;;;;;;16.63;2.25;;;7.60;99.90;;;;;;5029826;28;20033;-78
2021/12/01 05:51:58;;;;;;;5.47;1.42;;;7.60;99.90;;;;;;5031080;28;20057;-78
2021/12/01 05:54:24;;;;;;;11.38;1.95;;;7.70;99.90;;;;;;5031052;28;20497;-79
2021/12/01 05:56:50;;;;;;;;;;;7.80;99.90;;;;;;5030082;28;20065;-79
2021/12/01 05:59:16;;;;;;;3.70;0.95;;;7.80;99.90;;;;;;5029974;28;19956;-78
2021/12/01 06:01:42;;;;;;;9.05;1.83;;;7.90;99.90;;;;;;5029932;28;20025;-78
2021/12/01 06:04:08;;;;;;;5.40;1.40;;;7.90;99.90;;;;;;5013252;28;20029;-79
2021/12/01 06:06:33;;;;;;;4.65;1.42;;;8.00;99.90;;;;;;5031349;28;20396;-79
2021/12/01 06:08:59;;;;;;;4.50;1.23;;;8.00;99.90;;;;;;5033725;28;20025;-79
2021/12/01 06:11:25;;;;;;;12.27;1.77;;;8.00;99.90;;;;;;5033306;28;20085;-78
2021/12/01 06:13:52;;;;;;;16.13;2.00;;;8.00;99.90;;;;;;5017191;28;20030;-79
2021/12/01 06:16:23;;;;;;;5.20;1.63;;;8.00;99.90;;;;;;5034588;28;20039;-78
2021/12/01 06:18:50;;;;;;;7.35;2.33;;;8.00;99.90;;;;;;5034675;28;20506;-79
2021/12/01 06:21:16;;;;;;;10.43;2.13;;;7.90;99.90;;;;;;5033156;28;20026;-79
2021/12/01 06:23:42;;;;;;;3.08;0.77;;;7.80;99.90;;;;;;5034778;28;20028;-79
2021/12/01 06:26:08;;;;;;;7.55;1.67;;;7.80;99.90;;;;;;5016989;28;20045;-79
2021/12/01 06:28:34;;;;;;;8.68;1.48;;;7.70;99.90;;;;;;5033157;28;20043;-79
2021/12/01 06:31:00;;;;;;;6.50;1.50;;;7.70;99.90;;;;;;5033009;28;20149;-79
2021/12/01 06:33:26;;;;;;;13.65;1.83;;;7.70;99.90;;;;;;5033120;28;20033;-79
2021/12/01 06:35:52;;;;;;;8.05;1.20;;;7.70;99.90;;;;;;5032660;28;20036;-78
2021/12/01 06:38:19;;;;;;;12.73;2.25;;;7.60;99.90;;;;;;5033118;28;20376;-78
2021/12/01 06:40:46;;;;;;;6.70;1.63;;;7.70;99.90;;;;;;5034096;28;20087;-79
2021/12/01 06:43:12;;;;;;;9.60;1.58;;;7.60;99.90;;;;;;5034276;28;20071;-79
2021/12/01 06:45:38;;;;;;;13.27;1.63;;;7.70;99.90;;;;;;5034095;28;20029;-78
2021/12/01 06:48:04;;;;;;;4.47;0.98;;;7.70;99.90;;;;;;5032796;28;20065;-78
2021/12/01 06:50:30;;;;;;;;;;;7.70;99.90;;;;;;5034184;28;20392;-77
2021/12/01 06:52:56;;;;;;;4.90;0.90;;;7.70;99.90;;;;;;5034123;28;19909;-79
2021/12/01 06:55:23;;;;;;;9.45;1.52;;;7.80;99.90;;;;;;5034049;28;20029;-79
2021/12/01 06:57:49;;;;;;;8.60;1.35;;;7.70;99.80;;;;;;5032493;28;20041;-78
2021/12/01 07:00:16;;;;;;;6.28;1.45;;;7.60;99.70;;;;;;5015772;28;20463;-78
2021/12/01 07:02:42;;;;;;;12.48;1.75;;;7.60;99.80;;;;;;5032211;28;20074;-78
2021/12/01 07:05:09;;;;;;;9.40;1.55;;;7.50;99.80;;;;;;5033822;28;20037;-79
2021/12/01 07:07:35;;;;;;;10.50;1.67;;;7.40;99.80;;;;;;5032495;28;20129;-78
2021/12/01 07:10:02;;;;;;;;;;;7.40;99.90;;;;;;5032942;28;20435;-79
2021/12/01 07:12:28;;;;;;;4.57;1.10;;;7.40;99.90;;;;;;5034136;28;19978;-78
2021/12/01 07:14:53;;;;;;;10.73;1.63;;;7.50;99.90;;;;;;5032500;28;20264;-78
2021/12/01 07:17:20;;;;;;;4.97;1.27;;;7.50;99.90;;;;;;5016059;28;20472;-79
2021/12/01 07:19:46;;;;;;;;;;;7.50;99.90;;;;;;5031642;28;20492;-78
2021/12/01 07:22:12;;;;;;;8.63;1.33;;;7.50;99.90;;;;;;5016207;28;19913;-78
2021/12/01 07:24:38;;;;;;;10.18;1.75;;;7.60;99.90;;;;;;5015863;28;20450;-79
2021/12/01 07:27:04;;;;;;;7.53;2.30;;;7.60;99.90;;;;;;5032458;28;20040;-79
2021/12/01 07:29:30;;;;;;;13.45;2.65;;;7.70;99.90;;;;;;5015662;28;20396;-79
2021/12/01 07:31:56;;;;;;;;;;;7.80;99.80;;;;;;5034045;28;20029;-79
2021/12/01 07:34:21;;;;;;;16.23;2.85;;;7.80;99.70;;;;;;5032170;28;19905;-78
2021/12/01 07:36:48;;;;;;;8.13;2.10;;;7.80;99.60;;;;;;5034132;28;20407;-79
2021/12/01 07:39:14;;;;;;;10.88;2.10;;;7.70;99.70;;;;;;5034369;28;20187;-79
2021/12/01 07:41:40;;;;;;;17.55;2.05;;;7.70;99.90;;;;;;5033912;28;20030;-78
2021/12/01 07:44:05;;;;;;;10.52;1.50;;;7.80;99.90;;;;;;5016306;28;20030;-79
2021/12/01 07:46:31;;;;;;;10.48;2.03;;;7.90;99.90;;;;;;5031889;28;20025;-79
2021/12/01 07:48:57;;;;;;;10.75;2.15;;;7.90;99.80;;;;;;5033095;28;20121;-79
2021/12/01 07:51:23;;;;;;;8.30;1.38;;;8.00;99.80;;;;;;5031825;28;20466;-79
2021/12/01 07:53:49;;;;;;;8.88;1.58;;;8.00;99.70;;;;;;5032945;28;20034;-79
2021/12/01 07:56:15;;;;;;;;;;;8.00;99.60;;;;;;5032376;28;20026;-79
2021/12/01 07:58:41;;;;;;;7.00;1.33;;;8.00;99.40;;;;;;5032781;28;19932;-79
2021/12/01 08:01:06;;;;;;;8.25;2.22;;;7.90;99.30;;;;;;5031404;28;20488;-78
2021/12/01 08:03:32;;;;;;;9.98;1.25;;;7.80;99.60;;;;;;5032716;28;20128;-78
2021/12/01 08:05:58;;;;;;;12.43;1.95;;;7.80;99.70;;;;;;5032549;28;20044;-79
2021/12/01 08:08:24;;;;;;;9.23;1.73;;;7.90;99.80;;;;;;5014815;28;20052;-80
2021/12/01 08:10:50;;;;;;;11.13;1.70;;;7.90;99.70;;;;;;5030618;28;20113;-80
2021/12/01 08:13:15;;;;;;;4.18;2.00;;;8.00;99.60;;;;;;5031517;28;20033;-79
2021/12/01 08:15:41;;;;;;;8.35;1.30;;;8.00;99.60;;;;;;5030704;28;20495;-78
2021/12/01 08:18:07;;;;;;;7.50;1.55;;;8.00;99.60;;;;;;5014412;28;20037;-78
2021/12/01 08:20:33;;;;;;;2.58;0.60;;;8.00;99.60;;;;;;5014229;28;20037;-77
2021/12/01 08:22:59;;;;;;;7.07;1.50;;;8.00;99.60;;;;;;5031080;28;20060;-78
2021/12/01 08:25:25;;;;;;;8.57;1.60;;;8.10;99.60;;;;;;5030855;28;20038;-78
2021/12/01 08:27:51;;;;;;;15.77;1.52;;;8.10;99.60;;;;;;5031519;28;20044;-79
2021/12/01 08:30:17;;;;;;;11.45;2.25;;;8.10;99.60;;;;;;5012827;28;20037;-78
2021/12/01 08:32:45;;;;;;;8.40;1.50;;;8.20;99.60;;;;;;5029826;28;20480;-78
2021/12/01 08:35:12;;;;;;;12.55;1.52;;;8.20;99.60;;;;;;5014003;28;20397;-79
2021/12/01 08:37:38;;;;;;;7.90;1.63;;;8.20;99.50;;;;;;5030055;28;20026;-78
2021/12/01 08:40:05;;;;;;;9.27;1.60;;;8.30;99.50;;;;;;5013690;28;20033;-78
2021/12/01 08:42:30;;;;;;;;;;;8.30;99.50;;;;;;5030549;28;20044;-80
2021/12/01 08:44:56;;;;;;;11.75;1.20;;;8.30;99.40;;;;;;5029870;28;20090;-78
2021/12/01 08:47:26;;;;;;;12.13;1.85;;;8.30;99.40;;;;;;4997367;28;20037;-78
2021/12/01 08:49:52;;;;;;;8.15;1.70;;;8.30;99.40;;;;;;5031265;28;20025;-79
2021/12/01 08:52:18;;;;;;;;;;;8.30;99.30;;;;;;5030060;28;20038;-79
2021/12/01 08:54:44;;;;;;;16.45;2.05;;;8.20;99.20;;;;;;5029455;28;19916;-78
2021/12/01 08:57:10;;;;;;;4.97;1.90;;;8.20;99.10;;;;;;5029560;28;20037;-80
2021/12/01 08:59:36;;;;;;;12.57;2.13;;;8.10;99.10;;;;;;5029160;28;20112;-79
2021/12/01 09:02:03;;;;;;;11.60;1.73;;;8.00;99.10;;;;;;5030459;28;20021;-79
2021/12/01 09:04:29;;;;;;;10.90;2.28;;;8.00;99.20;;;;;;5030877;28;20030;-79
2021/12/01 09:06:56;;;;;;;11.90;2.35;;;7.90;99.20;;;;;;5029731;28;20480;-79
2021/12/01 09:09:21;;;;;;;;;;;7.80;99.30;;;;;;5031563;28;20037;-78
2021/12/01 09:11:50;;;;;;;9.52;1.52;;;7.90;99.30;;;;;;5029740;28;19971;-78
2021/12/01 09:14:17;;;;;;;9.82;1.38;;;7.80;99.30;;;;;;5031200;28;20017;-79
2021/12/01 09:16:47;;;;;;;8.50;2.60;;;7.80;99.20;;;;;;5013380;28;20030;-79
2021/12/01 09:19:13;;;;;;;15.10;1.73;;;7.80;99.20;;;;;;5029838;28;20026;-78
2021/12/01 09:21:39;;;;;;;13.05;1.65;;;7.80;99.20;;;;;;5030924;28;20026;-79
2021/12/01 09:24:06;;;;;;;16.95;2.15;;;7.80;99.20;;;;;;5031027;28;20035;-79
2021/12/01 09:26:33;;;;;;;13.38;2.47;;;7.80;99.40;;;;;;5029946;28;20037;-78
2021/12/01 09:28:59;;;;;;;9.75;1.73;;;7.90;99.20;;;;;;5029812;28;20049;-79
2021/12/01 09:31:25;;;;;;;9.48;1.60;;;8.00;99.10;;;;;;5030886;28;20038;-78
2021/12/01 09:33:51;;;;;;;9.50;1.77;;;8.00;99.10;;;;;;5030902;28;20507;-79
2021/12/01 09:36:17;;;;;;;18.67;1.83;;;8.10;99.00;;;;;;5029633;28;20148;-78
2021/12/01 09:38:43;;;;;;;17.23;2.22;;;8.00;98.90;;;;;;5030927;28;20033;-78
2021/12/01 09:41:09;;;;;;;;;;;8.10;98.90;;;;;;5031188;28;20044;-78
2021/12/01 09:43:35;;;;;;;16.00;3.25;;;8.20;99.10;;;;;;5033468;28;19909;-78
2021/12/01 09:46:04;;;;;;;19.38;3.38;;;8.30;99.00;;;;;;5035050;28;20580;-79
2021/12/01 09:48:31;;;;;;;14.00;2.25;;;8.40;98.90;;;;;;5034806;28;20030;-79
2021/12/01 09:50:58;;;;;;;12.70;2.35;;;8.50;98.90;;;;;;5034788;28;20021;-79
2021/12/01 09:53:23;;;;;;;;;;;8.80;99.30;;;;;;5033663;28;20457;-80
2021/12/01 09:55:49;;;;;;;19.45;3.35;;;9.10;99.10;;;;;;5016768;28;20016;-80
2021/12/01 09:58:24;;;;;;;14.93;3.03;;;9.10;98.70;;;;;;5017066;28;20017;-79
2021/12/01 10:00:52;;;;;;;14.45;2.42;;;9.20;98.20;;;;;;5034623;28;20033;-80
2021/12/01 10:03:19;;;;;;;15.00;2.25;;;9.20;98.40;;;;;;5036266;28;20025;-79
2021/12/01 10:06:13;;;;;;;16.58;3.20;;;9.50;98.80;;;;;;5035466;28;20029;-79
2021/12/01 10:08:42;;;;;;;12.57;2.58;;;10.00;99.00;;;;;;5036807;28;20048;-80
2021/12/01 10:11:15;;;;;;;23.58;2.97;;;10.10;98.00;;;;;;5035640;28;20046;-81
2021/12/01 10:13:57;;;;;;;16.95;3.05;;;10.30;98.20;;;;;;5035575;28;20079;-78
2021/12/01 10:16:27;;;;;;;20.73;2.92;;;10.70;98.20;;;;;;5035452;28;20017;-76
2021/12/01 10:18:57;;;;;;;26.58;4.25;;;11.20;98.20;;;;;;5036771;28;20021;-78
2021/12/01 10:21:37;;;;;;;16.52;2.80;;;11.40;97.30;;;;;;5041622;28;20053;-79
2021/12/01 10:24:25;;;;;;;17.73;2.72;;;11.40;96.30;;;;;;5056497;28;20031;-80
2021/12/01 10:26:56;;;;;;;19.88;2.97;;;11.00;95.20;;;;;;5049946;28;20351;-79
2021/12/01 10:29:29;;;;;;;15.48;2.97;;;10.60;95.20;;;;;;5056272;28;20025;-79
2021/12/01 10:32:13;;;;;;;16.35;2.70;;;10.30;95.20;;;;;;5044770;28;20415;-79
2021/12/01 10:34:58;;;;;;;14.27;3.15;;;10.00;95.30;;;;;;5036357;28;20045;-80
2021/12/01 10:37:26;;;;;;;18.38;3.53;;;9.70;95.30;;;;;;5018085;28;20226;-77
2021/12/01 10:40:10;;;;;;;23.45;3.80;;;9.50;95.10;;;;;;5018538;28;20095;-78
2021/12/01 10:42:56;;;;;;;13.45;3.10;;;9.30;95.10;;;;;;5037055;28;20100;-76
2021/12/01 10:45:26;;;;;;;15.30;2.97;;;9.10;95.10;;;;;;5055296;28;20028;-77
2021/12/01 10:47:52;;;;;;;12.48;2.15;;;9.00;95.40;;;;;;5054872;28;20025;-78
2021/12/01 10:50:21;;;;;;;13.02;2.30;;;9.00;95.60;;;;;;5021257;28;20040;-79
2021/12/01 10:52:50;;;;;;;14.80;3.17;;;9.00;95.50;;;;;;5055286;28;20041;-78
2021/12/01 10:55:19;;;;;;;20.73;2.83;;;9.00;95.60;;;;;;5055255;28;20032;-78
2021/12/01 10:57:54;;;;;;;12.82;2.80;;;9.10;95.70;;;;;;5054210;28;20036;-78
2021/12/01 11:00:23;;;;;;;12.73;2.28;;;9.20;95.40;;;;;;5055670;28;20112;-79
2021/12/01 11:02:50;;;;;;;13.25;3.05;;;9.30;95.20;;;;;;5054227;28;20025;-76
2021/12/01 11:05:31;;;;;;;16.17;3.10;;;9.40;95.00;;;;;;5055553;28;20375;-78
2021/12/01 11:08:31;;;;;;;16.27;3.38;;;9.30;94.80;;;;;;5053677;28;20184;-77
2021/12/01 11:11:35;;;;;;;12.35;2.30;;;9.40;94.90;;;;;;5053979;28;20400;-76
2021/12/01 11:14:10;;;;;;;16.73;3.35;;;9.50;95.00;;;;;;5033280;28;20055;-79
2021/12/01 11:16:37;;;;;;;11.30;2.78;;;9.60;94.80;;;;;;5055144;28;20102;-79
2021/12/01 11:19:03;;;;;;;16.60;2.97;;;9.60;94.70;;;;;;5055420;28;20017;-79
2021/12/01 11:21:29;;;;;;;17.63;2.63;;;9.60;94.70;;;;;;5055029;28;20035;-78
2021/12/01 11:24:00;;;;;;;11.75;2.20;;;9.70;94.70;;;;;;5054923;28;20081;-76
2021/12/01 11:26:28;;;;;;;14.20;2.20;;;9.70;94.30;;;;;;5053978;28;20480;-76
2021/12/01 11:28:56;;;;;;;12.85;2.03;;;9.80;94.20;;;;;;5055212;28;20499;-77
2021/12/01 11:31:24;;;;;;;15.18;2.17;;;9.70;94.10;;;;;;5054732;28;20078;-78
2021/12/01 11:33:55;;;;;;;13.13;2.70;;;9.60;94.00;;;;;;5056460;28;20464;-79
2021/12/01 11:36:29;;;;;;;15.40;2.80;;;9.60;93.80;;;;;;5053884;28;20037;-79
2021/12/01 11:39:01;;;;;;;10.18;2.13;;;9.60;93.80;;;;;;5054898;28;20052;-79
2021/12/01 11:41:28;;;;;;;14.82;2.88;;;9.60;93.60;;;;;;5054340;28;20028;-79
2021/12/01 11:43:57;;;;;;;14.35;2.53;;;9.60;93.90;;;;;;5055337;28;20043;-78
2021/12/01 11:46:23;;;;;;;12.68;2.97;;;9.60;93.80;;;;;;5055231;28;20029;-79
2021/12/01 11:48:54;;;;;;;12.05;2.55;;;9.70;93.90;;;;;;5053382;28;20017;-77
2021/12/01 11:51:36;;;;;;;14.02;3.20;;;9.90;93.80;;;;;;5054506;28;20033;-80
2021/12/01 11:54:13;;;;;;;13.38;2.10;;;10.00;93.80;;;;;;5055478;28;20024;-78
2021/12/01 11:56:48;;;;;;;15.55;2.33;;;10.10;93.40;;;;;;5054588;28;20028;-79
2021/12/01 11:59:13;;;;;;;17.30;3.45;;;10.10;93.50;;;;;;5054690;28;20029;-79
2021/12/01 12:01:49;;;;;;;20.90;2.75;;;10.00;93.20;;;;;;5054685;28;20029;-78
2021/12/01 12:04:17;;;;;;;13.18;2.03;;;9.90;93.10;;;;;;5052417;28;20116;-77
2021/12/01 12:07:11;;;;;;;16.67;2.85;;;9.90;93.20;;;;;;5053209;28;20391;-77
2021/12/01 12:09:38;;;;;;;9.20;1.70;;;9.90;93.10;;;;;;5031729;28;20065;-78
2021/12/01 12:12:13;;;;;;;14.98;2.60;;;9.80;93.20;;;;;;5007667;28;20457;-79
2021/12/01 12:14:49;;;;;;;12.50;2.15;;;9.80;93.20;;;;;;5036739;28;20427;-79
2021/12/01 12:17:32;;;;;;;15.68;2.38;;;9.90;93.20;;;;;;5035680;28;20036;-77
2021/12/01 12:20:29;;;;;;;8.88;2.22;;;9.90;93.30;;;;;;5035608;28;20025;-77
2021/12/01 12:22:57;;;;;;;9.18;1.90;;;10.10;93.30;;;;;;5051532;28;20196;-77
2021/12/01 12:26:04;;;;;;;12.55;2.45;;;10.20;93.30;;;;;;5050927;28;20032;-77
2021/12/01 12:28:35;;;;;;;11.17;1.77;;;10.10;92.90;;;;;;5026080;28;20435;-76
2021/12/01 12:31:18;;;;;;;12.40;2.22;;;10.10;92.80;;;;;;5050953;28;20044;-77
2021/12/01 12:33:59;;;;;;;8.18;1.83;;;10.10;92.70;;;;;;5051332;28;20387;-77
2021/12/01 12:36:57;;;;;;;5.43;1.23;;;10.10;92.70;;;;;;5033527;28;20031;-74
2021/12/01 12:39:25;;;;;;;13.75;2.00;;;10.10;92.80;;;;;;5043681;28;20037;-77
2021/12/01 12:42:05;;;;;;;9.82;1.98;;;10.10;92.80;;;;;;5034040;28;20025;-77
2021/12/01 12:44:44;;;;;;;8.38;2.10;;;10.00;92.70;;;;;;5033517;28;20527;-74
2021/12/01 12:47:25;;;;;;;7.28;2.55;;;9.90;92.70;;;;;;5050422;28;20029;-74
2021/12/01 12:49:52;;;;;;;13.45;2.10;;;9.80;92.90;;;;;;5051442;28;20456;-75
2021/12/01 12:52:42;;;;;;;13.50;1.83;;;9.80;93.00;;;;;;5052627;28;20027;-76
2021/12/01 12:55:09;;;;;;;11.85;1.60;;;9.80;92.90;;;;;;5051916;28;20065;-76
2021/12/01 12:57:57;;;;;;;12.30;2.10;;;9.80;93.00;;;;;;5053613;28;20067;-78
2021/12/01 13:00:32;;;;;;;7.72;2.47;;;9.80;93.00;;;;;;5052043;28;20456;-77
2021/12/01 13:03:23;;;;;;;8.93;1.45;;;9.70;92.80;;;;;;5053314;28;20025;-78
2021/12/01 13:06:01;;;;;;;9.60;3.55;;;9.60;92.90;;;;;;5051678;28;20044;-78
2021/12/01 13:08:37;;;;;;;8.82;1.42;;;9.60;93.10;;;;;;5051646;28;20024;-78
2021/12/01 13:11:13;;;;;;;7.18;0.85;;;9.70;93.20;;;;;;5046868;28;20056;-76